Wellington International Airport
NZWN : now visible

Airfield :











YOU CAN JOIN US ON...

 
LOGIN :

Register | Disclaimer

   EN    FR    IT 

 









Legend :    VFR   Marginal VFR   IFR   Intensive IFR   Very Intensive IFR
Visi :
Ceiling :
>= 8 km
>= 3000ft
5 to 8 km
1000 to 3000 ft
1500m to 5 km
500 to 1000 ft
800 to 1500m
200 to 500 ft
< 800m
< 200 ft
Symbols :   Thunderstorms  Fog  Heavy snow  Heavy precipitations  Wind > 20 kt






- Airport Elevation : 41 ft
- IATA code : WLG


NZWN - Wellington International

CURRENT METAR :
  • 300700Z AUTO 10003KT 9999 BKN070/// 17/11 Q1022 NOSIG

EXPIRED METARs :
  • 300630Z AUTO 06005KT 9999 FEW034/// OVC065/// 18/11 Q1022 NOSIG
  • 300600Z AUTO 12006KT 9999 BKN065/// 18/11 Q1021 NOSIG
  • 300530Z AUTO 12005KT 070V170 9999 FEW035/// OVC070/// 19/11 Q1021 NOSIG
  • 300500Z AUTO 09006KT 040V140 9999 BKN070/// 19/12 Q1021 NOSIG
  • 300430Z AUTO 11006KT 060V150 9999 SCT033/// SCT041/// 18/12 Q1021 NOSIG

TAF TAF NZWN
Valid from the 30 at 06:00 until the 31 at 06:00 UTC


300509Z 3006/3106 10008KT 9999 SCT035
PROB40
TEMPO 3015/3022 6000 SHRA BKN012
BECMG 3019/3021 16014KT



MET'MAP, your aeronautical weather chart ! - Copyright ORBIFLY December 2007 - Disclaimer

ORBIFLY MET'MAP TEAM :

Programming & Development : Alexandra Zaïnal
Concept & original design : Baudouin d'Aumeries
Assistance for programming : Marc-Olivier Méhu
Technical & hardware support : Manuel Goepfert

Contact : metmap@orbifly.com




SOURCES & CREDITS :

   NOAA       Earth
Advisory